Time;durP1;ratioP1;P1;durP2;ratioP2;P2;SDS_P1;SDS_P2;PMS_P1;PMS_P2;Temp;Humidity;BMP_temperature;BMP_pressure;BME280_temperature;BME280_humidity;BME280_pressure;Samples;Min_cycle;Max_cycle;Signal;HPM_P1;HPM_P2
2023/12/09 00:01:13;;;;;;;11.80;10.90;;;;;;;2.17;73.75;94922.22;5056633;28;20259;-70
2023/12/09 00:03:41;;;;;;;12.38;11.38;;;;;;;2.16;73.31;94920.63;5055739;28;20202;-70
2023/12/09 00:06:08;;;;;;;12.15;11.13;;;;;;;2.20;74.11;94920.81;5055658;28;20595;-70
2023/12/09 00:08:39;;;;;;;12.25;11.25;;;;;;;2.20;74.21;94929.00;5055616;28;20194;-70
2023/12/09 00:11:07;;;;;;;11.73;10.80;;;;;;;2.19;74.50;94924.66;5055373;28;20210;-70
2023/12/09 00:13:37;;;;;;;11.90;11.00;;;;;;;2.16;74.17;94926.88;5056071;28;20270;-70
2023/12/09 00:16:05;;;;;;;12.93;11.93;;;;;;;2.17;74.57;94933.91;5053765;28;20237;-70
2023/12/09 00:18:34;;;;;;;12.57;11.57;;;;;;;2.16;75.21;94926.88;5056402;28;20193;-70
2023/12/09 00:21:02;;;;;;;12.80;11.60;;;;;;;2.15;75.41;94928.00;5055668;28;20202;-70
2023/12/09 00:23:31;;;;;;;12.30;11.30;;;;;;;2.15;74.62;94927.19;5055606;28;20210;-70
2023/12/09 00:25:59;;;;;;;12.23;11.23;;;;;;;2.11;74.91;94923.47;5055713;28;20202;-70
2023/12/09 00:28:28;;;;;;;12.27;11.27;;;;;;;2.13;74.82;94918.50;5055926;28;20305;-70
2023/12/09 00:30:55;;;;;;;12.50;11.50;;;;;;;2.12;74.82;94917.72;5055853;28;20193;-70
2023/12/09 00:33:22;;;;;;;12.15;11.13;;;;;;;2.14;74.92;94914.66;5055945;28;20304;-70
2023/12/09 00:35:50;;;;;;;12.32;11.13;;;;;;;2.15;75.06;94910.88;5055820;28;20297;-70
2023/12/09 00:38:17;;;;;;;12.05;11.05;;;;;;;2.19;74.90;94911.88;5055833;28;20197;-70
2023/12/09 00:40:46;;;;;;;11.45;10.52;;;;;;;2.19;74.68;94916.50;5055227;28;20251;-70
2023/12/09 00:43:13;;;;;;;11.43;10.52;;;;;;;2.20;74.81;94920.81;5055597;28;20247;-70
2023/12/09 00:45:41;;;;;;;11.07;10.18;;;;;;;2.21;73.91;94915.06;5055167;28;20209;-70
2023/12/09 00:48:08;;;;;;;11.30;10.40;;;;;;;2.22;74.09;94916.69;5055038;28;20602;-70
2023/12/09 00:50:35;;;;;;;11.45;10.52;;;;;;;2.19;73.96;94919.22;5055712;28;20194;-70
2023/12/09 00:53:03;;;;;;;9.45;8.75;;;;;;;2.17;73.53;94916.78;5055454;28;20218;-70
2023/12/09 00:55:30;;;;;;;9.30;8.60;;;;;;;2.20;73.66;94920.81;5055595;28;20194;-70
2023/12/09 00:57:58;;;;;;;9.50;8.80;;;;;;;2.20;73.35;94923.56;5054831;28;20194;-70
2023/12/09 01:00:26;;;;;;;9.25;8.45;;;;;;;2.19;73.23;94928.19;5055480;28;20198;-70
2023/12/09 01:02:53;;;;;;;9.10;8.30;;;;;;;2.17;72.80;94919.50;5055870;28;20189;-70
2023/12/09 01:05:20;;;;;;;9.52;8.68;;;;;;;2.19;72.82;94921.94;5055933;28;20247;-70
2023/12/09 01:07:48;;;;;;;10.00;9.20;;;;;;;2.19;72.67;94922.75;5055599;28;20197;-70
2023/12/09 01:10:17;;;;;;;8.75;8.15;;;;;;;2.21;73.15;94923.22;5055119;28;20197;-70
2023/12/09 01:12:44;;;;;;;9.02;8.32;;;;;;;2.24;73.28;94924.56;5054625;28;20202;-70
2023/12/09 01:15:11;;;;;;;9.32;8.48;;;;;;;2.25;72.68;94935.16;5054597;28;20669;-70
2023/12/09 01:17:41;;;;;;;8.85;8.15;;;;;;;2.25;72.51;94932.44;5054511;28;20319;-70
2023/12/09 01:20:11;;;;;;;8.73;8.02;;;;;;;2.26;72.26;94931.31;5054610;28;20289;-70
2023/12/09 01:22:38;;;;;;;8.75;8.00;;;;;;;2.26;72.31;94931.31;5054359;28;20194;-70
2023/12/09 01:25:10;;;;;;;8.85;8.15;;;;;;;2.29;72.23;94935.34;5055047;28;20206;-70
2023/12/09 01:27:41;;;;;;;9.13;8.43;;;;;;;2.30;72.27;94929.59;5055282;28;20194;-69
2023/12/09 01:30:11;;;;;;;8.50;7.80;;;;;;;2.23;71.26;94926.47;5054948;28;20190;-69
2023/12/09 01:32:41;;;;;;;9.13;8.43;;;;;;;2.20;71.85;94929.78;5054643;28;20201;-69
2023/12/09 01:35:13;;;;;;;8.55;7.95;;;;;;;2.17;71.63;94933.13;5054842;28;20275;-69
2023/12/09 01:37:42;;;;;;;9.10;8.40;;;;;;;2.14;72.05;94920.94;5054390;28;20224;-70
2023/12/09 01:40:15;;;;;;;8.90;8.20;;;;;;;2.15;71.98;94924.47;5054599;28;20228;-70
2023/12/09 01:42:44;;;;;;;9.60;8.80;;;;;;;2.13;72.55;94918.50;5054337;28;20181;-69
2023/12/09 01:45:11;;;;;;;9.73;8.88;;;;;;;2.08;72.38;94924.06;5054761;28;20194;-70
2023/12/09 01:47:39;;;;;;;11.13;10.23;;;;;;;2.07;72.22;94925.16;5054665;28;20205;-70
2023/12/09 01:50:08;;;;;;;11.05;10.15;;;;;;;2.06;72.21;94918.91;5053911;28;20190;-69
2023/12/09 01:52:35;;;;;;;10.77;9.88;;;;;;;2.04;72.26;94923.88;5054465;28;20193;-70
2023/12/09 01:55:03;;;;;;;10.30;9.45;;;;;;;2.01;72.45;94920.94;5054386;28;20225;-70
2023/12/09 01:57:30;;;;;;;10.88;9.90;;;;;;;1.97;72.50;94917.22;5054618;28;20210;-70
2023/12/09 01:59:58;;;;;;;10.50;9.60;;;;;;;1.95;72.68;94913.97;5053812;28;20210;-70
2023/12/09 02:02:25;;;;;;;10.73;9.82;;;;;;;1.99;73.13;94914.97;5053785;28;20193;-70
2023/12/09 02:04:52;;;;;;;10.23;9.43;;;;;;;2.00;72.57;94914.69;5054625;28;20255;-70
2023/12/09 02:07:20;;;;;;;10.60;9.70;;;;;;;2.01;72.83;94910.84;5054450;28;20209;-70
2023/12/09 02:09:47;;;;;;;11.48;10.48;;;;;;;2.05;72.39;94908.34;5054516;28;20208;-70
2023/12/09 02:12:22;;;;;;;10.43;9.63;;;;;;;2.04;72.39;94907.53;5054280;28;20296;-70
2023/12/09 02:14:54;;;;;;;9.80;9.00;;;;;;;2.07;72.62;94914.28;5061222;28;20229;-70
2023/12/09 02:17:30;;;;;;;11.30;10.40;;;;;;;2.05;72.43;94921.94;5075134;28;20189;-70
2023/12/09 02:20:00;;;;;;;10.95;10.10;;;;;;;2.06;72.80;94915.38;5074547;28;20291;-70
2023/12/09 02:22:28;;;;;;;9.93;9.13;;;;;;;2.06;72.07;94907.22;5073976;28;20254;-70
2023/12/09 02:24:57;;;;;;;9.27;8.48;;;;;;;2.08;72.20;94907.75;5073806;28;20228;-70
2023/12/09 02:27:29;;;;;;;9.52;8.82;;;;;;;2.09;71.53;94903.91;5074061;28;20201;-69
2023/12/09 02:30:00;;;;;;;10.05;9.25;;;;;;;2.09;71.26;94903.91;5074754;28;20204;-69
2023/12/09 02:32:30;;;;;;;9.48;8.68;;;;;;;2.09;71.62;94906.63;5073798;28;20190;-69
2023/12/09 02:35:01;;;;;;;10.30;9.40;;;;;;;2.06;71.63;94907.22;5076088;28;20668;-69
2023/12/09 02:37:31;;;;;;;10.93;10.05;;;;;;;2.04;71.54;94901.28;5078301;28;20201;-69
2023/12/09 02:40:09;;;;;;;10.73;9.82;;;;;;;2.04;72.42;94904.81;5077572;28;20250;-69
2023/12/09 02:42:38;;;;;;;10.50;9.60;;;;;;;2.05;72.26;94902.91;5078066;28;20204;-69
2023/12/09 02:45:10;;;;;;;11.15;10.25;;;;;;;2.06;72.72;94893.63;5077733;28;20254;-69
2023/12/09 02:47:40;;;;;;;11.43;10.52;;;;;;;2.05;72.79;94897.47;5077446;28;20197;-69
2023/12/09 02:50:07;;;;;;;10.75;9.95;;;;;;;2.04;72.61;94901.28;5077189;28;20205;-69
2023/12/09 02:52:34;;;;;;;10.45;9.55;;;;;;;2.02;72.57;94895.34;5077815;28;20208;-69
2023/12/09 02:55:07;;;;;;;10.43;9.52;;;;;;;1.99;72.36;94895.94;5077118;28;20221;-70
2023/12/09 02:57:35;;;;;;;9.98;9.18;;;;;;;1.98;73.08;94895.13;5077568;28;20232;-70
2023/12/09 03:00:09;;;;;;;9.38;8.57;;;;;;;1.97;73.05;94898.97;5077457;28;20247;-70
2023/12/09 03:02:36;;;;;;;10.40;9.50;;;;;;;1.95;72.91;94898.47;5077402;28;20200;-70
2023/12/09 03:05:05;;;;;;;8.40;7.70;;;;;;;1.93;72.48;94898.78;5077085;28;20204;-69
2023/12/09 03:07:32;;;;;;;8.93;8.13;;;;;;;1.90;72.50;94899.38;5076843;28;20617;-69
2023/12/09 03:09:59;;;;;;;8.65;7.93;;;;;;;1.93;72.00;94892.53;5076967;28;20193;-69
2023/12/09 03:12:30;;;;;;;8.70;8.00;;;;;;;1.91;71.65;94894.75;5076697;28;20209;-69
2023/12/09 03:14:57;;;;;;;8.20;7.60;;;;;;;1.87;72.25;94883.66;5077610;28;20236;-69
2023/12/09 03:17:24;;;;;;;8.65;7.95;;;;;;;1.87;72.34;94893.72;5077358;28;20205;-70
2023/12/09 03:19:53;;;;;;;8.55;7.85;;;;;;;1.85;72.66;94891.31;5077114;28;20190;-70
2023/12/09 03:22:20;;;;;;;8.80;8.10;;;;;;;1.83;72.92;94895.44;5076824;28;20193;-70
2023/12/09 03:24:47;;;;;;;9.55;8.65;;;;;;;1.85;72.68;94895.94;5077262;28;20247;-70
2023/12/09 03:27:15;;;;;;;9.50;8.70;;;;;;;1.81;73.59;94894.94;5076343;28;20200;-70
2023/12/09 03:29:45;;;;;;;9.25;8.55;;;;;;;1.79;73.42;94897.97;5076355;28;20230;-70
2023/12/09 03:32:11;;;;;;;9.18;8.48;;;;;;;1.75;73.96;94901.59;5077238;28;20255;-70
2023/12/09 03:34:40;;;;;;;9.77;8.98;;;;;;;1.73;74.36;94898.34;5076730;28;20243;-70
2023/12/09 03:37:08;;;;;;;10.23;9.43;;;;;;;1.71;74.48;94898.66;5076541;28;20209;-70
2023/12/09 03:39:39;;;;;;;11.48;10.57;;;;;;;1.67;74.90;94900.34;5077312;28;20259;-70
2023/12/09 03:42:07;;;;;;;11.23;10.32;;;;;;;1.65;74.42;94897.16;5077093;28;20204;-70
2023/12/09 03:44:34;;;;;;;10.90;10.00;;;;;;;1.65;75.65;94899.88;5077449;28;20197;-70
2023/12/09 03:47:06;;;;;;;11.93;11.02;;;;;;;1.63;75.48;94896.63;5076054;28;20228;-70
2023/12/09 03:49:33;;;;;;;11.07;10.13;;;;;;;1.60;75.28;94902.69;5076325;28;20255;-70
2023/12/09 03:51:59;;;;;;;11.90;10.90;;;;;;;1.58;75.74;94900.25;5076868;28;20220;-70
2023/12/09 03:54:25;;;;;;;10.70;9.88;;;;;;;1.58;75.61;94904.88;5076534;28;20216;-70
2023/12/09 03:56:54;;;;;;;11.38;10.45;;;;;;;1.57;75.76;94898.66;5092754;28;20201;-70
2023/12/09 03:59:21;;;;;;;10.00;9.20;;;;;;;1.59;75.20;94912.72;5075978;28;20270;-70
2023/12/09 04:01:50;;;;;;;9.45;8.75;;;;;;;1.61;75.08;94909.72;5075849;28;20532;-70
2023/12/09 04:04:18;;;;;;;9.60;8.90;;;;;;;1.63;75.04;94905.63;5075924;28;20189;-70
2023/12/09 04:06:45;;;;;;;10.98;10.07;;;;;;;1.63;75.70;94905.63;5076440;28;20254;-70
2023/12/09 04:09:16;;;;;;;10.63;9.82;;;;;;;1.61;76.00;94913.25;5075945;28;20215;-70
2023/12/09 04:11:43;;;;;;;9.63;8.82;;;;;;;1.61;75.09;94913.25;5075893;28;20296;-70
2023/12/09 04:14:11;;;;;;;9.05;8.32;;;;;;;1.68;73.77;94919.09;5069798;28;20295;-70
2023/12/09 04:16:38;;;;;;;8.80;8.10;;;;;;;1.72;73.66;94908.44;5056348;28;20193;-70
2023/12/09 04:19:05;;;;;;;8.10;7.50;;;;;;;1.78;72.63;94920.00;5056712;28;20248;-70
2023/12/09 04:21:34;;;;;;;9.63;8.85;;;;;;;1.81;72.90;94917.50;5055907;28;20255;-70
2023/12/09 04:24:05;;;;;;;9.35;8.63;;;;;;;1.84;72.56;94921.53;5055335;28;20189;-70
2023/12/09 04:26:32;;;;;;;11.95;10.85;;;;;;;1.83;73.45;94928.09;5055849;28;20346;-70
2023/12/09 04:29:00;;;;;;;13.25;11.88;;;;;;;1.76;73.49;94920.31;5056192;28;20252;-70
2023/12/09 04:31:27;;;;;;;12.52;11.40;;;;;;;1.69;74.15;94920.69;5056428;28;20223;-70
2023/12/09 04:33:54;;;;;;;11.63;10.63;;;;;;;1.67;74.42;94924.81;5055790;28;20189;-70
2023/12/09 04:36:25;;;;;;;12.05;11.05;;;;;;;1.55;74.69;94924.50;5056466;28;20239;-70
2023/12/09 04:38:53;;;;;;;11.45;10.60;;;;;;;1.55;74.90;94925.31;5055730;28;20208;-70
2023/12/09 04:41:22;;;;;;;12.05;11.05;;;;;;;1.54;75.49;94920.19;5055795;28;20699;-70
2023/12/09 04:43:50;;;;;;;11.35;10.35;;;;;;;1.54;75.23;94922.91;5055657;28;20186;-70
2023/12/09 04:46:18;;;;;;;11.80;10.80;;;;;;;1.59;75.99;94926.31;5056351;28;20206;-70
2023/12/09 04:48:48;;;;;;;11.60;10.68;;;;;;;1.63;76.08;94926.53;5055578;28;20186;-70
2023/12/09 04:51:16;;;;;;;12.05;11.05;;;;;;;1.63;76.18;94924.66;5055605;28;20190;-70
2023/12/09 04:53:46;;;;;;;12.15;11.23;;;;;;;1.63;75.96;94930.09;5054943;28;20216;-70
2023/12/09 04:56:15;;;;;;;12.07;11.10;;;;;;;1.65;76.47;94927.06;5055632;28;20206;-70
2023/12/09 04:58:42;;;;;;;11.93;10.93;;;;;;;1.65;75.66;94933.28;5056430;28;20268;-70
2023/12/09 05:01:09;;;;;;;11.77;10.77;;;;;;;1.66;76.00;94936.81;5055398;28;20197;-70
2023/12/09 05:03:36;;;;;;;10.90;10.10;;;;;;;1.69;75.68;94947.91;5055709;28;20201;-70
2023/12/09 05:06:04;;;;;;;10.45;9.65;;;;;;;1.73;75.66;94944.59;5055518;28;20194;-70
2023/12/09 05:08:32;;;;;;;8.07;7.47;;;;;;;1.78;75.21;94944.47;5054809;28;20210;-70
2023/12/09 05:10:59;;;;;;;7.30;6.80;;;;;;;1.84;74.50;94951.44;5054708;28;20198;-70
2023/12/09 05:13:28;;;;;;;7.28;6.68;;;;;;;1.90;73.99;94945.63;5055111;28;20208;-70
2023/12/09 05:15:57;;;;;;;8.02;7.40;;;;;;;1.96;73.84;94954.50;5054299;28;20247;-70
2023/12/09 05:18:25;;;;;;;7.35;6.75;;;;;;;2.01;72.77;94957.09;5054977;28;20236;-70
2023/12/09 05:20:52;;;;;;;7.72;7.13;;;;;;;2.06;72.83;94954.28;5054872;28;20197;-69
2023/12/09 05:23:19;;;;;;;7.40;6.90;;;;;;;2.05;72.20;94962.75;5054361;28;20696;-70
2023/12/09 05:25:46;;;;;;;7.30;6.80;;;;;;;2.06;72.09;94962.44;5055137;28;20197;-70
2023/12/09 05:28:13;;;;;;;7.68;7.07;;;;;;;2.10;72.31;94971.59;5054590;28;20252;-70
2023/12/09 05:30:45;;;;;;;8.13;7.53;;;;;;;2.11;72.07;94962.34;5054114;28;20629;-70
2023/12/09 05:33:12;;;;;;;7.53;6.93;;;;;;;2.15;72.14;94973.44;5055285;28;20204;-70
2023/12/09 05:35:39;;;;;;;7.97;7.38;;;;;;;2.20;71.81;94978.78;5054300;28;20711;-69
2023/12/09 05:38:06;;;;;;;7.63;7.03;;;;;;;2.21;71.87;94971.41;5054802;28;20197;-70
2023/12/09 05:40:34;;;;;;;7.50;7.00;;;;;;;2.22;71.19;94973.03;5054436;28;20202;-69
2023/12/09 05:43:00;;;;;;;7.28;6.78;;;;;;;2.24;71.44;94973.53;5054303;28;20197;-69
2023/12/09 05:45:28;;;;;;;6.68;6.18;;;;;;;2.23;71.50;94972.72;5055235;28;20197;-69
2023/12/09 05:47:58;;;;;;;6.85;6.35;;;;;;;2.25;71.99;94980.59;5055019;28;20212;-70
2023/12/09 05:50:25;;;;;;;7.65;7.05;;;;;;;2.25;70.91;94980.59;5053925;28;20209;-70
2023/12/09 05:52:52;;;;;;;7.13;6.63;;;;;;;2.26;71.00;94982.22;5054524;28;20186;-70
2023/12/09 05:55:19;;;;;;;7.65;7.05;;;;;;;2.24;70.53;94985.22;5054643;28;20209;-69
2023/12/09 05:57:46;;;;;;;8.27;7.68;;;;;;;2.25;70.46;94986.03;5054207;28;20197;-69
2023/12/09 06:00:14;;;;;;;7.65;7.05;;;;;;;2.27;70.49;94989.25;5054220;28;20227;-69
2023/12/09 06:02:41;;;;;;;8.93;8.23;;;;;;;2.27;69.94;94987.34;5054632;28;20190;-69
2023/12/09 06:05:10;;;;;;;9.00;8.30;;;;;;;2.26;70.60;94988.47;5054410;28;20200;-69
2023/12/09 06:07:37;;;;;;;9.10;8.40;;;;;;;2.25;70.00;94988.75;5054515;28;20584;-69
2023/12/09 06:10:06;;;;;;;9.82;9.02;;;;;;;2.27;70.17;94986.53;5057201;28;20251;-69
2023/12/09 06:12:33;;;;;;;9.68;8.93;;;;;;;2.29;70.89;94989.78;5059044;28;20308;-70
2023/12/09 06:15:00;;;;;;;10.70;9.80;;;;;;;2.31;70.70;94993.78;5054720;28;20433;-69
2023/12/09 06:17:27;;;;;;;10.15;9.35;;;;;;;2.35;70.78;95002.97;5041955;28;20202;-69
2023/12/09 06:19:54;;;;;;;9.93;9.02;;;;;;;2.37;70.45;94995.31;5041459;28;20267;-69
2023/12/09 06:22:22;;;;;;;9.90;9.20;;;;;;;2.39;70.40;95003.97;5041581;28;20197;-68
2023/12/09 06:24:51;;;;;;;9.55;8.75;;;;;;;2.44;70.00;94999.56;5040924;28;20596;-67
2023/12/09 06:27:18;;;;;;;9.85;8.88;;;;;;;2.47;69.71;94998.94;5041658;28;20281;-68
2023/12/09 06:29:46;;;;;;;9.60;8.77;;;;;;;2.47;70.23;94998.94;5041370;28;20221;-68
2023/12/09 06:32:17;;;;;;;9.82;9.02;;;;;;;2.47;70.41;95004.38;5042088;28;20193;-68
2023/12/09 06:34:47;;;;;;;10.95;9.95;;;;;;;2.47;70.47;94994.31;5041575;28;20546;-68
2023/12/09 06:37:15;;;;;;;11.30;10.40;;;;;;;2.44;70.17;94996.84;5041658;28;20201;-68
2023/12/09 06:39:45;;;;;;;10.90;10.00;;;;;;;2.47;69.39;95005.19;5057392;28;20625;-69
2023/12/09 06:42:15;;;;;;;9.77;8.98;;;;;;;2.50;69.88;95001.03;5041100;28;20225;-68
2023/12/09 06:44:45;;;;;;;10.35;9.40;;;;;;;2.53;69.76;95011.34;5041443;28;20202;-68
2023/12/09 06:47:12;;;;;;;9.80;9.05;;;;;;;2.56;69.80;95018.91;5041190;28;20197;-68
2023/12/09 06:49:42;;;;;;;10.20;9.30;;;;;;;2.57;69.26;95012.34;5041365;28;20209;-68
2023/12/09 06:52:10;;;;;;;10.23;9.32;;;;;;;2.57;69.59;95012.34;5041223;28;20202;-68
2023/12/09 06:54:40;;;;;;;11.57;10.57;;;;;;;2.58;69.33;95008.53;5041179;28;20202;-68
2023/12/09 06:57:13;;;;;;;11.10;10.20;;;;;;;2.58;69.49;95014.78;5041284;28;20198;-68
2023/12/09 06:59:42;;;;;;;11.35;10.25;;;;;;;2.60;69.82;95017.19;5041144;28;20274;-68
2023/12/09 07:02:09;;;;;;;10.27;9.38;;;;;;;2.58;69.15;95014.78;5040363;28;20259;-68
2023/12/09 07:04:38;;;;;;;10.85;9.85;;;;;;;2.61;69.40;95016.06;5041276;28;20201;-68
2023/12/09 07:07:07;;;;;;;10.02;9.05;;;;;;;2.64;69.67;95018.19;5041288;28;20557;-68
2023/12/09 07:09:36;;;;;;;10.55;9.65;;;;;;;2.62;69.27;95023.94;5040684;28;20205;-68
2023/12/09 07:12:03;;;;;;;10.85;9.95;;;;;;;2.67;69.23;95031.19;5040583;28;20206;-68
2023/12/09 07:14:39;;;;;;;9.45;8.65;;;;;;;2.67;68.95;95022.22;5050078;28;20290;-68
2023/12/09 07:17:10;;;;;;;10.02;9.18;;;;;;;2.68;69.58;95032.81;5077425;28;20253;-68
2023/12/09 07:19:39;;;;;;;55.25;50.08;;;;;;;2.70;69.25;95024.34;5077003;28;20203;-68
2023/12/09 07:22:07;;;;;;;104.13;95.13;;;;;;;2.71;69.14;95032.19;5076637;28;20201;-68
2023/12/09 07:24:34;;;;;;;52.17;47.42;;;;;;;2.75;69.20;95021.50;5077337;28;20213;-68
2023/12/09 07:27:01;;;;;;;25.02;22.38;;;;;;;2.77;69.20;95024.75;5076665;28;20193;-68
2023/12/09 07:29:29;;;;;;;15.43;13.85;;;;;;;2.78;69.08;95034.53;5076474;28;20688;-68
2023/12/09 07:32:00;;;;;;;11.63;10.25;;;;;;;2.75;68.43;95035.13;5077185;28;20250;-68
2023/12/09 07:34:27;;;;;;;8.30;7.60;;;;;;;2.78;67.92;95035.31;5077673;28;20252;-68
2023/12/09 07:36:56;;;;;;;7.95;7.15;;;;;;;2.75;67.39;95035.13;5076505;28;20594;-68
2023/12/09 07:39:24;;;;;;;8.27;7.57;;;;;;;2.71;67.50;95050.47;5076326;28;20205;-67
2023/12/09 07:41:53;;;;;;;8.48;7.78;;;;;;;2.70;67.62;95046.13;5077551;28;20235;-68
2023/12/09 07:44:23;;;;;;;10.27;9.38;;;;;;;2.76;68.48;95053.91;5076478;28;20250;-68
2023/12/09 07:46:50;;;;;;;15.10;13.60;;;;;;;2.79;68.13;95044.28;5076015;28;20205;-68
2023/12/09 07:49:21;;;;;;;14.70;13.30;;;;;;;2.76;67.92;95053.06;5076387;28;20197;-68
2023/12/09 07:51:52;;;;;;;11.93;10.82;;;;;;;2.76;68.23;95045.72;5076738;28;20233;-68
2023/12/09 07:54:19;;;;;;;12.50;11.20;;;;;;;2.75;68.25;95049.53;5076082;28;20209;-68
2023/12/09 07:56:47;;;;;;;9.32;8.52;;;;;;;2.73;68.14;95053.69;5076300;28;20217;-68
2023/12/09 07:59:14;;;;;;;11.15;9.60;;;;;;;2.80;68.63;95052.19;5076295;28;20209;-68
2023/12/09 08:01:42;;;;;;;12.23;11.13;;;;;;;2.87;68.63;95058.03;5076847;28;20209;-68
2023/12/09 08:04:12;;;;;;;11.43;10.43;;;;;;;2.86;68.11;95061.03;5075451;28;20262;-68
2023/12/09 08:06:40;;;;;;;10.40;9.50;;;;;;;2.91;68.17;95062.88;5075778;28;20258;-68
2023/12/09 08:09:09;;;;;;;10.73;9.82;;;;;;;2.89;68.25;95063.16;5076336;28;20255;-68
2023/12/09 08:11:38;;;;;;;9.25;8.45;;;;;;;2.93;68.39;95066.88;5076054;28;20201;-68
2023/12/09 08:14:07;;;;;;;9.20;8.40;;;;;;;2.94;67.86;95064.97;5073818;28;20237;-67
2023/12/09 08:16:35;;;;;;;9.20;8.40;;;;;;;2.98;67.72;95068.69;5058787;28;20278;-68
2023/12/09 08:19:02;;;;;;;8.55;7.85;;;;;;;3.00;67.17;95066.47;5058817;28;20614;-68
2023/12/09 08:21:31;;;;;;;8.32;7.72;;;;;;;2.99;67.19;95059.41;5059496;28;20581;-68
2023/12/09 08:24:01;;;;;;;7.63;7.03;;;;;;;2.99;67.22;95067.59;5059056;28;20208;-68
2023/12/09 08:26:29;;;;;;;6.82;6.32;;;;;;;3.00;66.46;95066.47;5059176;28;20539;-68
2023/12/09 08:28:58;;;;;;;7.63;7.03;;;;;;;3.01;66.34;95065.34;5058642;28;20201;-68
2023/12/09 08:31:25;;;;;;;6.80;6.20;;;;;;;3.00;65.82;95064.56;5059664;28;20247;-68
2023/12/09 08:33:52;;;;;;;6.00;5.50;;;;;;;2.99;65.72;95064.88;5058332;28;20682;-68
2023/12/09 08:36:20;;;;;;;5.95;5.45;;;;;;;2.93;65.82;95066.88;5059561;28;20216;-68
2023/12/09 08:38:47;;;;;;;12.32;9.25;;;;;;;3.02;66.66;95075.97;5059066;28;20285;-68
2023/12/09 08:41:17;;;;;;;11.75;10.15;;;;;;;3.11;67.17;95065.94;5059021;28;20227;-68
2023/12/09 08:43:51;;;;;;;8.57;7.85;;;;;;;3.24;66.75;95069.78;5076312;28;20194;-68
2023/12/09 08:46:19;;;;;;;8.35;7.65;;;;;;;3.32;66.86;95073.69;5058921;28;20204;-68
2023/12/09 08:48:49;;;;;;;7.85;7.25;;;;;;;3.32;66.51;95060.84;5058438;28;20514;-68
2023/12/09 08:51:16;;;;;;;8.02;7.43;;;;;;;3.32;66.04;95069.03;5075658;28;20196;-68
2023/12/09 08:53:43;;;;;;;7.82;7.22;;;;;;;3.34;66.52;95072.28;5058135;28;20193;-67
2023/12/09 08:56:10;;;;;;;7.80;7.10;;;;;;;3.35;66.05;95065.69;5058227;28;20251;-68
2023/12/09 08:58:39;;;;;;;7.40;6.80;;;;;;;3.37;66.15;95065.38;5058775;28;20196;-68
2023/12/09 09:01:12;;;;;;;6.80;6.30;;;;;;;3.37;65.69;95063.47;5058656;28;20186;-68
2023/12/09 09:03:43;;;;;;;6.70;6.20;;;;;;;3.39;65.51;95057.72;5058204;28;20216;-68
2023/12/09 09:06:12;;;;;;;7.63;6.82;;;;;;;3.40;65.27;95062.03;5057864;28;20527;-67
2023/12/09 09:08:43;;;;;;;6.70;6.18;;;;;;;3.38;65.41;95059.63;5058301;28;20254;-68
2023/12/09 09:11:12;;;;;;;6.82;6.32;;;;;;;3.42;65.67;95056.31;5058622;28;20516;-68
2023/12/09 09:13:41;;;;;;;7.25;6.65;;;;;;;3.47;65.59;95058.91;5058150;28;20235;-68
2023/12/09 09:16:12;;;;;;;7.63;7.03;;;;;;;3.45;64.89;95066.56;5057825;28;20208;-68
2023/12/09 09:18:42;;;;;;;7.40;6.78;;;;;;;3.45;65.61;95061.13;5057630;28;20220;-68
2023/12/09 09:21:10;;;;;;;7.63;7.03;;;;;;;3.49;65.36;95048.50;5058955;28;20608;-68
2023/12/09 09:23:36;;;;;;;6.80;6.28;;;;;;;3.53;65.85;95053.03;5075473;28;20193;-68
2023/12/09 09:26:07;;;;;;;7.50;6.90;;;;;;;3.55;65.41;95045.31;5058241;28;20189;-68
2023/12/09 09:28:33;;;;;;;7.57;6.97;;;;;;;3.50;64.91;95044.66;5058098;28;20197;-68
2023/12/09 09:31:07;;;;;;;7.97;7.28;;;;;;;3.54;65.00;95042.91;5057863;28;20209;-68
2023/12/09 09:33:34;;;;;;;7.25;6.70;;;;;;;3.54;64.69;95030.09;5057893;28;20181;-68
2023/12/09 09:36:01;;;;;;;7.45;6.88;;;;;;;3.51;64.83;95030.69;5075015;28;20240;-68
2023/12/09 09:38:32;;;;;;;6.90;6.40;;;;;;;3.51;65.04;95029.91;5058138;28;20200;-68
2023/12/09 09:41:02;;;;;;;7.38;6.78;;;;;;;3.56;65.08;95022.41;5058416;28;20204;-69
2023/12/09 09:43:33;;;;;;;7.07;6.47;;;;;;;3.61;65.26;95021.47;5057716;28;20246;-68
2023/12/09 09:46:03;;;;;;;7.70;7.10;;;;;;;3.64;64.66;95012.69;5057830;28;20251;-69
2023/12/09 09:48:34;;;;;;;8.07;7.47;;;;;;;3.68;64.85;95010.94;5058457;28;20223;-68
2023/12/09 09:51:07;;;;;;;8.13;7.43;;;;;;;3.66;64.64;95017.81;5058022;28;20197;-68
2023/12/09 09:53:37;;;;;;;6.50;6.00;;;;;;;3.68;64.37;95010.94;5075658;28;20233;-68
2023/12/09 09:56:07;;;;;;;7.15;6.55;;;;;;;3.73;64.46;95021.72;5057893;28;20227;-68
2023/12/09 09:58:35;;;;;;;7.00;6.50;;;;;;;3.79;64.55;95014.22;5058565;28;20205;-68
2023/12/09 10:01:06;;;;;;;6.70;6.20;;;;;;;3.80;64.63;95021.28;5058218;28;20220;-68
2023/12/09 10:03:33;;;;;;;7.28;6.55;;;;;;;3.77;63.73;95025.44;5057971;28;20227;-68
2023/12/09 10:06:01;;;;;;;6.63;6.03;;;;;;;3.75;63.60;95024.94;5057931;28;20660;-68
2023/12/09 10:08:29;;;;;;;6.15;5.63;;;;;;;3.76;63.76;95032.00;5057706;28;20242;-68
2023/12/09 10:10:57;;;;;;;7.03;6.53;;;;;;;3.75;64.47;95022.22;5058208;28;20220;-68
2023/12/09 10:13:26;;;;;;;6.63;6.07;;;;;;;3.77;64.37;95022.69;5058379;28;20303;-68
2023/12/09 10:15:56;;;;;;;6.47;5.97;;;;;;;3.80;64.46;95019.34;5069832;28;20236;-68
2023/12/09 10:18:28;;;;;;;6.80;6.20;;;;;;;3.87;64.49;95018.91;5074448;28;20201;-68
2023/12/09 10:20:55;;;;;;;6.00;5.60;;;;;;;3.86;63.50;95011.88;5075396;28;20200;-68
2023/12/09 10:23:23;;;;;;;5.68;5.28;;;;;;;3.89;63.63;95010.44;5074442;28;20193;-68
2023/12/09 10:25:53;;;;;;;5.57;5.18;;;;;;;3.87;63.13;95010.72;5074267;28;20189;-68
2023/12/09 10:28:23;;;;;;;5.10;4.70;;;;;;;3.85;62.58;95013.00;5075078;28;20221;-68
2023/12/09 10:30:51;;;;;;;6.10;5.60;;;;;;;3.93;63.83;95006.78;5074768;28;20197;-69
2023/12/09 10:33:20;;;;;;;6.38;5.88;;;;;;;3.91;62.96;95009.00;5074341;28;20193;-69
2023/12/09 10:35:50;;;;;;;6.25;5.70;;;;;;;3.89;63.36;95003.06;5074831;28;20227;-68
2023/12/09 10:38:19;;;;;;;6.10;5.60;;;;;;;3.89;63.12;94999.53;5074233;28;20201;-69
2023/12/09 10:40:49;;;;;;;6.63;6.05;;;;;;;3.86;63.27;94999.03;5074191;28;20207;-68
2023/12/09 10:43:19;;;;;;;6.35;5.85;;;;;;;3.89;63.44;94996.81;5074962;28;20208;-68
2023/12/09 10:45:46;;;;;;;6.53;6.03;;;;;;;3.90;63.69;94998.41;5074422;28;20225;-68
2023/12/09 10:48:14;;;;;;;7.22;6.63;;;;;;;3.93;63.94;94995.84;5074170;28;20197;-68
2023/12/09 10:50:40;;;;;;;7.65;7.05;;;;;;;3.91;63.74;94987.16;5073565;28;20209;-68
2023/12/09 10:53:09;;;;;;;8.00;7.40;;;;;;;3.90;63.89;94985.56;5074510;28;20254;-68
2023/12/09 10:55:36;;;;;;;7.68;6.97;;;;;;;3.89;63.14;94991.34;5075961;28;20196;-68
2023/12/09 10:58:06;;;;;;;7.55;6.95;;;;;;;3.85;63.53;94991.16;5077873;28;20249;-68
2023/12/09 11:00:36;;;;;;;7.70;7.05;;;;;;;3.85;63.84;94988.44;5077803;28;20220;-68
2023/12/09 11:03:03;;;;;;;8.52;7.78;;;;;;;3.84;63.51;94990.31;5077461;28;20233;-68
2023/12/09 11:05:32;;;;;;;9.63;8.73;;;;;;;3.87;63.98;94983.44;5077606;28;20204;-68
2023/12/09 11:08:00;;;;;;;9.43;8.43;;;;;;;3.90;63.79;94984.75;5078105;28;20185;-69
2023/12/09 11:10:29;;;;;;;8.80;8.00;;;;;;;3.93;63.75;94987.66;5077800;28;20198;-68
2023/12/09 11:12:56;;;;;;;8.75;7.95;;;;;;;3.94;63.58;94980.28;5077665;28;20247;-68
2023/12/09 11:15:30;;;;;;;7.43;6.72;;;;;;;3.91;63.41;94980.91;5076859;28;20221;-68
2023/12/09 11:18:07;;;;;;;7.47;6.88;;;;;;;3.89;63.06;94970.31;5076683;28;20651;-68
2023/12/09 11:20:37;;;;;;;6.18;5.68;;;;;;;3.93;63.89;94973.22;5077287;28;20193;-68
2023/12/09 11:23:05;;;;;;;6.00;5.50;;;;;;;3.92;62.89;94975.16;5077551;28;20197;-68
2023/12/09 11:25:42;;;;;;;6.15;5.55;;;;;;;3.92;63.61;94971.59;5076738;28;20246;-69
2023/12/09 11:28:12;;;;;;;6.85;6.25;;;;;;;3.83;63.02;94966.09;5077193;28;20381;-69
2023/12/09 11:30:44;;;;;;;8.43;7.72;;;;;;;3.83;63.72;94972.34;5076981;28;20205;-68
2023/12/09 11:33:11;;;;;;;8.52;7.78;;;;;;;3.80;63.62;94970.25;5077294;28;20197;-68
2023/12/09 11:35:40;;;;;;;7.68;6.97;;;;;;;3.85;64.16;94972.84;5077546;28;20201;-68
2023/12/09 11:38:09;;;;;;;7.53;6.85;;;;;;;3.91;63.78;94970.78;5076995;28;20225;-69
2023/12/09 11:40:41;;;;;;;8.02;7.32;;;;;;;3.94;63.88;94970.16;5076381;28;20197;-68
2023/12/09 11:43:08;;;;;;;7.43;6.82;;;;;;;3.89;63.10;94966.78;5077253;28;20185;-68